Time;durP1;ratioP1;P1;durP2;ratioP2;P2;SDS_P1;SDS_P2;PMS_P1;PMS_P2;Temp;Humidity;BMP_temperature;BMP_pressure;BME280_temperature;BME280_humidity;BME280_pressure;Samples;Min_cycle;Max_cycle;Signal;HPM_P1;HPM_P2
2021/09/08 00:02:10;;;;;;;8.80;4.20;;;;;;;;;;5052691;28;20521;-75
2021/09/08 00:04:38;;;;;;;4.25;3.75;;;;;;;;;;5052211;28;20649;-75
2021/09/08 00:07:05;;;;;;;5.35;3.92;;;;;;;;;;5036503;28;20669;-76
2021/09/08 00:09:34;;;;;;;5.78;3.65;;;;;;;;;;5049622;28;20208;-74
2021/09/08 00:12:01;;;;;;;6.90;4.32;;;;;;;;;;5052215;28;20656;-75
2021/09/08 00:14:28;;;;;;;5.47;4.30;;;;;;;;;;5052793;28;20632;-75
2021/09/08 00:16:55;;;;;;;7.95;4.22;;;;;;;;;;5052856;28;20254;-75
2021/09/08 00:19:23;;;;;;;5.13;4.43;;;;;;;;;;5051356;28;20295;-75
2021/09/08 00:21:50;;;;;;;5.53;4.30;;;;;;;;;;5051609;28;20283;-75
2021/09/08 00:24:17;;;;;;;4.72;4.07;;;;;;;;;;5051390;28;20199;-75
2021/09/08 00:26:46;;;;;;;6.53;4.30;;;;;;;;;;5052312;28;20286;-75
2021/09/08 00:29:13;;;;;;;5.75;4.00;;;;;;;;;;5051737;28;20310;-75
2021/09/08 00:31:40;;;;;;;6.55;4.45;;;;;;;;;;5052283;28;20295;-75
2021/09/08 00:34:07;;;;;;;7.20;4.10;;;;;;;;;;5052616;28;20296;-75
2021/09/08 00:36:34;;;;;;;5.80;4.40;;;;;;;;;;5041254;28;20254;-75
2021/09/08 00:39:01;;;;;;;6.15;4.35;;;;;;;;;;5031840;28;20279;-75
2021/09/08 00:41:31;;;;;;;9.95;4.32;;;;;;;;;;5042377;28;20326;-75
2021/09/08 00:44:07;;;;;;;7.20;4.45;;;;;;;;;;5043357;28;20208;-75
2021/09/08 00:46:34;;;;;;;5.07;3.83;;;;;;;;;;5040532;28;20227;-75
2021/09/08 00:49:01;;;;;;;7.53;4.28;;;;;;;;;;5038271;28;20306;-75
2021/09/08 00:51:28;;;;;;;6.88;4.25;;;;;;;;;;5031928;28;20295;-75
2021/09/08 00:53:56;;;;;;;7.50;4.40;;;;;;;;;;5051204;28;20291;-76
2021/09/08 00:56:24;;;;;;;6.20;4.00;;;;;;;;;;5048505;28;20246;-74
2021/09/08 00:58:51;;;;;;;8.55;4.40;;;;;;;;;;5051382;28;20274;-75
2021/09/08 01:01:20;;;;;;;5.45;4.10;;;;;;;;;;5051095;28;20289;-75
2021/09/08 01:03:47;;;;;;;8.05;4.20;;;;;;;;;;5051568;28;20323;-75
2021/09/08 01:06:14;;;;;;;8.95;4.45;;;;;;;;;;5051504;28;20284;-75
2021/09/08 01:08:41;;;;;;;6.00;4.15;;;;;;;;;;5043830;28;20224;-75
2021/09/08 01:11:09;;;;;;;6.32;4.28;;;;;;;;;;5052046;28;20198;-75
2021/09/08 01:13:36;;;;;;;6.18;4.25;;;;;;;;;;5052089;28;20208;-75
2021/09/08 01:16:05;;;;;;;5.82;4.63;;;;;;;;;;5051222;28;20267;-75
2021/09/08 01:18:33;;;;;;;7.55;4.50;;;;;;;;;;5051360;28;20187;-75
2021/09/08 01:21:01;;;;;;;7.38;4.45;;;;;;;;;;5050799;28;20203;-75
2021/09/08 01:23:30;;;;;;;6.20;4.25;;;;;;;;;;5051649;28;20294;-74
2021/09/08 01:25:57;;;;;;;6.65;4.20;;;;;;;;;;5051055;28;20299;-75
2021/09/08 01:28:24;;;;;;;6.20;4.30;;;;;;;;;;5051407;28;20251;-75
2021/09/08 01:30:54;;;;;;;5.55;4.07;;;;;;;;;;5050770;28;20212;-75
2021/09/08 01:33:22;;;;;;;7.15;4.30;;;;;;;;;;5051472;28;20287;-75
2021/09/08 01:35:49;;;;;;;8.18;4.57;;;;;;;;;;5051047;28;20243;-75
2021/09/08 01:38:16;;;;;;;9.05;4.40;;;;;;;;;;5051694;28;20286;-75
2021/09/08 01:40:45;;;;;;;9.05;4.63;;;;;;;;;;5040274;28;20292;-75
2021/09/08 01:43:12;;;;;;;6.35;4.68;;;;;;;;;;5051525;28;20731;-75
2021/09/08 01:45:41;;;;;;;7.38;4.50;;;;;;;;;;5051341;28;20235;-75
2021/09/08 01:48:08;;;;;;;8.05;4.95;;;;;;;;;;5051205;28;20227;-75
2021/09/08 01:50:36;;;;;;;8.07;4.15;;;;;;;;;;5050880;28;20309;-75
2021/09/08 01:53:03;;;;;;;12.00;4.85;;;;;;;;;;5051309;28;20294;-75
2021/09/08 01:55:30;;;;;;;6.65;4.72;;;;;;;;;;5051359;28;20231;-74
2021/09/08 01:57:59;;;;;;;7.53;4.30;;;;;;;;;;5049873;28;20283;-74
2021/09/08 02:00:26;;;;;;;5.55;4.32;;;;;;;;;;5050786;28;20723;-75
2021/09/08 02:02:53;;;;;;;7.90;5.13;;;;;;;;;;5036875;28;20298;-75
2021/09/08 02:05:21;;;;;;;9.20;4.30;;;;;;;;;;5031122;28;20287;-75
2021/09/08 02:07:48;;;;;;;6.55;4.93;;;;;;;;;;5031529;28;20291;-75
2021/09/08 02:10:15;;;;;;;6.90;4.57;;;;;;;;;;5034517;28;20238;-75
2021/09/08 02:12:43;;;;;;;6.45;4.40;;;;;;;;;;5050433;28;20634;-75
2021/09/08 02:15:13;;;;;;;5.97;4.90;;;;;;;;;;5050606;28;20211;-75
2021/09/08 02:17:40;;;;;;;9.18;4.22;;;;;;;;;;5031115;28;20200;-75
2021/09/08 02:20:08;;;;;;;6.78;4.35;;;;;;;;;;5030861;28;20201;-75
2021/09/08 02:22:35;;;;;;;7.38;4.82;;;;;;;;;;5047901;28;20204;-75
2021/09/08 02:25:02;;;;;;;4.50;4.10;;;;;;;;;;5051116;28;20291;-75
2021/09/08 02:27:29;;;;;;;5.43;4.53;;;;;;;;;;5050495;28;20295;-75
2021/09/08 02:29:57;;;;;;;5.80;4.40;;;;;;;;;;5050507;28;20299;-75
2021/09/08 02:32:25;;;;;;;6.50;4.38;;;;;;;;;;5050529;28;20298;-75
2021/09/08 02:34:52;;;;;;;6.45;4.50;;;;;;;;;;5050662;28;20808;-75
2021/09/08 02:37:19;;;;;;;9.18;4.60;;;;;;;;;;5049785;28;20291;-75
2021/09/08 02:39:47;;;;;;;7.10;4.93;;;;;;;;;;5051445;28;20283;-75
2021/09/08 02:42:15;;;;;;;7.05;5.38;;;;;;;;;;5050788;28;20619;-75
2021/09/08 02:44:42;;;;;;;4.70;4.20;;;;;;;;;;5042808;28;20196;-75
2021/09/08 02:47:10;;;;;;;9.50;4.72;;;;;;;;;;5044458;28;20649;-74
2021/09/08 02:49:39;;;;;;;7.53;5.15;;;;;;;;;;5054277;28;20307;-75
2021/09/08 02:52:06;;;;;;;7.28;5.20;;;;;;;;;;5054334;28;20286;-75
2021/09/08 02:54:33;;;;;;;8.30;5.20;;;;;;;;;;5054364;28;20286;-76
2021/09/08 02:57:00;;;;;;;7.88;4.70;;;;;;;;;;5053737;28;20239;-75
2021/09/08 02:59:28;;;;;;;9.65;4.68;;;;;;;;;;5054010;28;20196;-74
2021/09/08 03:01:55;;;;;;;9.10;4.60;;;;;;;;;;5053917;28;20300;-75
2021/09/08 03:04:22;;;;;;;5.65;4.80;;;;;;;;;;5053180;28;20677;-75
2021/09/08 03:06:51;;;;;;;7.20;4.78;;;;;;;;;;5036676;28;20719;-75
2021/09/08 03:09:18;;;;;;;7.82;5.15;;;;;;;;;;5044167;28;20331;-75
2021/09/08 03:11:45;;;;;;;7.03;4.72;;;;;;;;;;5052630;28;20291;-75
2021/09/08 03:14:12;;;;;;;6.70;4.90;;;;;;;;;;5053471;28;20287;-75
2021/09/08 03:16:39;;;;;;;5.38;4.88;;;;;;;;;;5053285;28;20226;-75
2021/09/08 03:19:07;;;;;;;5.22;4.72;;;;;;;;;;5054250;28;20239;-75
2021/09/08 03:21:34;;;;;;;5.97;5.28;;;;;;;;;;5053136;28;20287;-75
2021/09/08 03:24:02;;;;;;;5.45;4.60;;;;;;;;;;5053565;28;20226;-75
2021/09/08 03:26:29;;;;;;;7.03;4.97;;;;;;;;;;5053669;28;20299;-75
2021/09/08 03:28:56;;;;;;;6.40;4.97;;;;;;;;;;5053970;28;20311;-75
2021/09/08 03:31:24;;;;;;;6.67;5.07;;;;;;;;;;5052995;28;20303;-75
2021/09/08 03:33:51;;;;;;;5.68;5.10;;;;;;;;;;5044589;28;20224;-74
2021/09/08 03:36:19;;;;;;;7.97;4.88;;;;;;;;;;5053079;28;20278;-75
2021/09/08 03:38:46;;;;;;;5.80;4.90;;;;;;;;;;5033597;28;20283;-75
2021/09/08 03:41:15;;;;;;;7.57;4.73;;;;;;;;;;5041712;28;20287;-74
2021/09/08 03:43:42;;;;;;;7.05;5.07;;;;;;;;;;5053489;28;20211;-74
2021/09/08 03:46:09;;;;;;;6.70;5.25;;;;;;;;;;5052975;28;20239;-74
2021/09/08 03:48:37;;;;;;;5.32;4.82;;;;;;;;;;5052780;28;20237;-75
2021/09/08 03:51:04;;;;;;;5.57;4.90;;;;;;;;;;5053659;28;20214;-75
2021/09/08 03:53:31;;;;;;;6.43;5.20;;;;;;;;;;5053213;28;20238;-75
2021/09/08 03:55:58;;;;;;;6.10;4.93;;;;;;;;;;5053075;28;20288;-75
2021/09/08 03:58:27;;;;;;;5.90;5.37;;;;;;;;;;5053168;28;20227;-75
2021/09/08 04:00:54;;;;;;;6.00;5.33;;;;;;;;;;5052483;28;20254;-75
2021/09/08 04:03:21;;;;;;;7.82;5.80;;;;;;;;;;5052691;28;20322;-75
2021/09/08 04:05:48;;;;;;;7.83;5.13;;;;;;;;;;5052712;28;20286;-75
2021/09/08 04:08:15;;;;;;;5.97;4.97;;;;;;;;;;5052864;28;20306;-75
2021/09/08 04:10:43;;;;;;;7.83;5.73;;;;;;;;;;5047640;28;20294;-75
2021/09/08 04:13:10;;;;;;;5.90;5.23;;;;;;;;;;5032828;28;20747;-75
2021/09/08 04:15:39;;;;;;;5.97;5.10;;;;;;;;;;5041059;28;20656;-75
2021/09/08 04:18:07;;;;;;;5.72;4.82;;;;;;;;;;5049006;28;20238;-75
2021/09/08 04:20:34;;;;;;;5.97;5.38;;;;;;;;;;5051947;28;20196;-75
2021/09/08 04:23:02;;;;;;;7.30;5.22;;;;;;;;;;5052246;28;20290;-75
2021/09/08 04:25:29;;;;;;;5.20;4.70;;;;;;;;;;5052236;28;20291;-75
2021/09/08 04:27:56;;;;;;;11.73;5.80;;;;;;;;;;5051621;28;20291;-75
2021/09/08 04:30:23;;;;;;;7.20;5.77;;;;;;;;;;5051529;28;20302;-75
2021/09/08 04:32:52;;;;;;;6.50;5.55;;;;;;;;;;5051716;28;20294;-74
2021/09/08 04:35:19;;;;;;;6.43;5.47;;;;;;;;;;5051807;28;20731;-75
2021/09/08 04:37:46;;;;;;;7.87;6.20;;;;;;;;;;5032479;28;20299;-75
2021/09/08 04:40:14;;;;;;;6.93;6.00;;;;;;;;;;5031485;28;20283;-75
2021/09/08 04:42:42;;;;;;;7.07;5.40;;;;;;;;;;5041514;28;20291;-75
2021/09/08 04:45:10;;;;;;;6.77;5.33;;;;;;;;;;5043292;28;20232;-74
2021/09/08 04:47:37;;;;;;;6.67;5.43;;;;;;;;;;5040579;28;20195;-75
2021/09/08 04:50:07;;;;;;;6.90;5.83;;;;;;;;;;5037890;28;20222;-78
2021/09/08 04:52:35;;;;;;;8.67;5.63;;;;;;;;;;5035477;28;20291;-77
2021/09/08 04:55:02;;;;;;;8.10;5.73;;;;;;;;;;5045130;28;20207;-77
2021/09/08 04:57:29;;;;;;;10.33;5.60;;;;;;;;;;5052167;28;20227;-78
2021/09/08 04:59:57;;;;;;;7.07;5.30;;;;;;;;;;5050986;28;20198;-78
2021/09/08 05:02:24;;;;;;;8.10;5.90;;;;;;;;;;5037259;28;20211;-75
2021/09/08 05:04:51;;;;;;;6.80;5.67;;;;;;;;;;5052224;28;20231;-78
2021/09/08 05:07:20;;;;;;;7.43;5.60;;;;;;;;;;5051554;28;20275;-78
2021/09/08 05:09:47;;;;;;;6.70;5.87;;;;;;;;;;5050167;28;20311;-78
2021/09/08 05:12:15;;;;;;;7.43;5.90;;;;;;;;;;5046058;28;20242;-78
2021/09/08 05:14:42;;;;;;;7.10;5.63;;;;;;;;;;5045049;28;20245;-75
2021/09/08 05:17:10;;;;;;;6.87;5.70;;;;;;;;;;5051017;28;20227;-74
2021/09/08 05:19:37;;;;;;;7.40;5.80;;;;;;;;;;5050908;28;20698;-76
2021/09/08 05:22:05;;;;;;;6.63;5.45;;;;;;;;;;5049553;28;20287;-75
2021/09/08 05:24:33;;;;;;;8.25;5.65;;;;;;;;;;5049898;28;20762;-76
2021/09/08 05:27:00;;;;;;;7.22;5.70;;;;;;;;;;5043650;28;20283;-75
2021/09/08 05:29:27;;;;;;;7.68;5.50;;;;;;;;;;5039487;28;20310;-76
2021/09/08 05:31:55;;;;;;;7.93;5.80;;;;;;;;;;5051703;28;20290;-74
2021/09/08 05:34:22;;;;;;;8.90;6.07;;;;;;;;;;5050881;28;20231;-74
2021/09/08 05:36:49;;;;;;;7.13;5.77;;;;;;;;;;5051092;28;20203;-74
2021/09/08 05:39:16;;;;;;;5.93;5.30;;;;;;;;;;5048934;28;20230;-74
2021/09/08 05:41:45;;;;;;;7.03;5.43;;;;;;;;;;5034805;28;21111;-75
2021/09/08 05:44:12;;;;;;;7.43;5.97;;;;;;;;;;5033761;28;20290;-74
2021/09/08 05:46:39;;;;;;;6.87;5.40;;;;;;;;;;5040963;28;20287;-74
2021/09/08 05:49:07;;;;;;;6.83;5.13;;;;;;;;;;5033849;28;20228;-75
2021/09/08 05:51:34;;;;;;;6.97;5.78;;;;;;;;;;5045654;28;20727;-75
2021/09/08 05:54:01;;;;;;;5.47;4.97;;;;;;;;;;5050164;28;20738;-74
2021/09/08 05:56:28;;;;;;;6.77;6.07;;;;;;;;;;5049487;28;20751;-75
2021/09/08 05:58:57;;;;;;;6.93;5.80;;;;;;;;;;5049523;28;20286;-74
2021/09/08 06:01:24;;;;;;;7.20;5.50;;;;;;;;;;5051125;28;20250;-75
2021/09/08 06:03:51;;;;;;;6.47;5.78;;;;;;;;;;5050176;28;20628;-75
2021/09/08 06:06:18;;;;;;;6.45;5.35;;;;;;;;;;5049990;28;20230;-75
2021/09/08 06:08:46;;;;;;;6.43;5.30;;;;;;;;;;5050615;28;20283;-75
2021/09/08 06:11:13;;;;;;;6.47;5.20;;;;;;;;;;5050644;28;20231;-75
2021/09/08 06:13:40;;;;;;;6.50;5.68;;;;;;;;;;5045927;28;20290;-75
2021/09/08 06:16:09;;;;;;;6.55;5.72;;;;;;;;;;5040550;28;20295;-75
2021/09/08 06:18:36;;;;;;;8.25;5.45;;;;;;;;;;5048758;28;20754;-75
2021/09/08 06:21:03;;;;;;;5.90;5.10;;;;;;;;;;5043792;28;20238;-75
2021/09/08 06:23:30;;;;;;;7.70;5.13;;;;;;;;;;5055345;28;20204;-75
2021/09/08 06:25:57;;;;;;;7.50;5.50;;;;;;;;;;5054223;28;20223;-75
2021/09/08 06:28:25;;;;;;;7.60;5.38;;;;;;;;;;5052600;28;20782;-76
2021/09/08 06:30:52;;;;;;;9.05;5.90;;;;;;;;;;5045186;28;20226;-76
2021/09/08 06:33:21;;;;;;;6.67;5.57;;;;;;;;;;5051158;28;20295;-76
2021/09/08 06:35:49;;;;;;;6.53;5.22;;;;;;;;;;5037911;28;20661;-76
2021/09/08 06:38:17;;;;;;;6.22;5.53;;;;;;;;;;5046529;28;20201;-75
2021/09/08 06:40:44;;;;;;;7.55;5.30;;;;;;;;;;5042051;28;20287;-76
2021/09/08 06:43:11;;;;;;;6.10;5.50;;;;;;;;;;5048143;28;20291;-76
2021/09/08 06:45:38;;;;;;;7.30;5.88;;;;;;;;;;5045959;28;20287;-75
2021/09/08 06:48:06;;;;;;;6.22;5.63;;;;;;;;;;5050836;28;20191;-76
2021/09/08 06:50:34;;;;;;;9.07;6.07;;;;;;;;;;5051675;28;20251;-76
2021/09/08 06:53:02;;;;;;;6.22;5.30;;;;;;;;;;5051431;28;20295;-77
2021/09/08 06:55:29;;;;;;;6.05;5.38;;;;;;;;;;5053543;28;20248;-75
2021/09/08 06:57:56;;;;;;;5.85;5.25;;;;;;;;;;5053185;28;20291;-76
2021/09/08 07:00:23;;;;;;;7.68;5.43;;;;;;;;;;5052357;28;20215;-76
2021/09/08 07:02:50;;;;;;;7.68;5.68;;;;;;;;;;5053389;28;20322;-76
2021/09/08 07:05:20;;;;;;;14.23;6.30;;;;;;;;;;5053190;28;20192;-76
2021/09/08 07:07:49;;;;;;;14.95;6.25;;;;;;;;;;5054169;28;20203;-76
2021/09/08 07:10:16;;;;;;;13.15;6.25;;;;;;;;;;5053298;28;20310;-75
2021/09/08 07:12:44;;;;;;;9.60;6.38;;;;;;;;;;5050863;28;20227;-76
2021/09/08 07:15:12;;;;;;;8.90;6.57;;;;;;;;;;5033965;28;20429;-77
2021/09/08 07:17:39;;;;;;;9.25;6.53;;;;;;;;;;5036901;28;20247;-76
2021/09/08 07:20:07;;;;;;;8.80;6.00;;;;;;;;;;5053247;28;20283;-77
2021/09/08 07:22:34;;;;;;;9.13;6.60;;;;;;;;;;5053110;28;20199;-76
2021/09/08 07:25:02;;;;;;;8.00;6.88;;;;;;;;;;5048065;28;20294;-75
2021/09/08 07:27:30;;;;;;;8.60;6.28;;;;;;;;;;5053638;28;20291;-77
2021/09/08 07:29:57;;;;;;;7.55;6.72;;;;;;;;;;5053333;28;20314;-76
2021/09/08 07:32:24;;;;;;;6.60;5.95;;;;;;;;;;5053454;28;20282;-77
2021/09/08 07:34:51;;;;;;;7.65;5.78;;;;;;;;;;5052657;28;20286;-77
2021/09/08 07:37:19;;;;;;;8.80;6.57;;;;;;;;;;5052833;28;20294;-76
2021/09/08 07:39:46;;;;;;;8.02;6.20;;;;;;;;;;5052374;28;20663;-77
2021/09/08 07:42:15;;;;;;;7.88;6.57;;;;;;;;;;5053333;28;20286;-77
2021/09/08 07:44:43;;;;;;;7.03;6.32;;;;;;;;;;5052471;28;20231;-77
2021/09/08 07:47:10;;;;;;;7.97;6.40;;;;;;;;;;5044250;28;20195;-76
2021/09/08 07:49:37;;;;;;;9.65;6.90;;;;;;;;;;5052133;28;20659;-76
2021/09/08 07:52:05;;;;;;;8.25;6.97;;;;;;;;;;5036116;28;20287;-77
2021/09/08 07:54:32;;;;;;;7.97;6.53;;;;;;;;;;5051615;28;20290;-76
2021/09/08 07:57:00;;;;;;;9.38;6.88;;;;;;;;;;5051848;28;20235;-76
2021/09/08 07:59:28;;;;;;;11.82;6.90;;;;;;;;;;5052448;28;20283;-77
2021/09/08 08:01:55;;;;;;;14.75;7.72;;;;;;;;;;5052113;28;20311;-75
2021/09/08 08:04:24;;;;;;;14.23;7.05;;;;;;;;;;5051811;28;20340;-75
2021/09/08 08:06:51;;;;;;;11.20;7.43;;;;;;;;;;5051950;28;20593;-76
2021/09/08 08:09:18;;;;;;;12.93;7.05;;;;;;;;;;5051851;28;20223;-75
2021/09/08 08:11:46;;;;;;;11.10;7.40;;;;;;;;;;5051395;28;20922;-76
2021/09/08 08:14:13;;;;;;;8.98;7.07;;;;;;;;;;5051677;28;20221;-75
2021/09/08 08:16:42;;;;;;;10.18;6.93;;;;;;;;;;5047639;28;20670;-76
2021/09/08 08:19:09;;;;;;;10.88;7.03;;;;;;;;;;5051564;28;20290;-75
2021/09/08 08:21:36;;;;;;;8.45;7.10;;;;;;;;;;5051036;28;20195;-74
2021/09/08 08:24:03;;;;;;;10.52;7.57;;;;;;;;;;5052008;28;20277;-76
2021/09/08 08:26:30;;;;;;;9.82;7.78;;;;;;;;;;5049854;28;20207;-75
2021/09/08 08:28:58;;;;;;;15.45;9.52;;;;;;;;;;5051815;28;20722;-76
2021/09/08 08:31:25;;;;;;;14.30;9.40;;;;;;;;;;5050714;28;20310;-76
2021/09/08 08:33:54;;;;;;;18.73;10.68;;;;;;;;;;5045602;28;20295;-76
2021/09/08 08:36:21;;;;;;;12.82;10.18;;;;;;;;;;5040420;28;20231;-75
2021/09/08 08:38:49;;;;;;;15.25;10.75;;;;;;;;;;5043586;28;20211;-74
2021/09/08 08:41:16;;;;;;;18.45;11.85;;;;;;;;;;5051089;28;20283;-75
2021/09/08 08:43:44;;;;;;;15.60;11.23;;;;;;;;;;5051329;28;20227;-75
2021/09/08 08:46:11;;;;;;;14.25;9.93;;;;;;;;;;5051257;28;20251;-75
2021/09/08 08:48:38;;;;;;;15.57;8.88;;;;;;;;;;5040902;28;20223;-76
2021/09/08 08:51:07;;;;;;;8.60;7.40;;;;;;;;;;5051474;28;20255;-75
2021/09/08 08:53:34;;;;;;;9.90;7.30;;;;;;;;;;5051652;28;20632;-75
2021/09/08 08:56:01;;;;;;;18.30;7.75;;;;;;;;;;5050852;28;20219;-76
2021/09/08 08:58:28;;;;;;;8.52;7.55;;;;;;;;;;5051394;28;20231;-75
2021/09/08 09:01:15;;;;;;;8.82;6.72;;;;;;;;;;5051474;28;20679;-76
2021/09/08 09:03:42;;;;;;;8.23;6.78;;;;;;;;;;5051272;28;20239;-76
2021/09/08 09:06:11;;;;;;;7.88;6.75;;;;;;;;;;5050638;28;20287;-76
2021/09/08 09:08:38;;;;;;;9.40;6.82;;;;;;;;;;5051450;28;20295;-76
2021/09/08 09:11:05;;;;;;;11.05;7.13;;;;;;;;;;5051730;28;20234;-75
2021/09/08 09:13:33;;;;;;;7.93;7.05;;;;;;;;;;5049926;28;20287;-75
2021/09/08 09:16:04;;;;;;;7.90;7.00;;;;;;;;;;5042349;28;20203;-75
2021/09/08 09:18:38;;;;;;;16.60;13.85;;;;;;;;;;5051292;28;20547;-75
2021/09/08 09:21:09;;;;;;;25.67;21.60;;;;;;;;;;5043365;28;20223;-75
2021/09/08 09:23:43;;;;;;;26.52;23.67;;;;;;;;;;5042777;28;20201;-76
2021/09/08 09:26:10;;;;;;;21.70;19.38;;;;;;;;;;5042801;28;20315;-76
2021/09/08 09:28:41;;;;;;;19.67;16.63;;;;;;;;;;5050867;28;20651;-76
2021/09/08 09:31:15;;;;;;;19.77;16.77;;;;;;;;;;5050518;28;20755;-77
2021/09/08 09:33:46;;;;;;;20.60;16.45;;;;;;;;;;5049452;28;20268;-77
2021/09/08 09:36:18;;;;;;;11.38;9.60;;;;;;;;;;5050852;28;20287;-77
2021/09/08 09:38:47;;;;;;;9.18;8.00;;;;;;;;;;5050329;28;20643;-76
2021/09/08 09:41:15;;;;;;;8.55;7.75;;;;;;;;;;5038735;28;20294;-77
2021/09/08 09:43:42;;;;;;;8.10;7.30;;;;;;;;;;5044142;28;20235;-76
2021/09/08 09:46:10;;;;;;;7.07;6.40;;;;;;;;;;5034251;28;20614;-77
2021/09/08 09:48:37;;;;;;;7.35;6.75;;;;;;;;;;5045382;28;20286;-77
2021/09/08 09:51:05;;;;;;;7.15;6.43;;;;;;;;;;5050738;28;20318;-77
2021/09/08 09:53:32;;;;;;;8.93;6.35;;;;;;;;;;5055091;28;20286;-77
2021/09/08 09:56:01;;;;;;;8.07;7.13;;;;;;;;;;5054356;28;20211;-77
2021/09/08 09:58:28;;;;;;;7.97;7.15;;;;;;;;;;5054115;28;20280;-77
2021/09/08 10:00:56;;;;;;;9.65;7.53;;;;;;;;;;5055241;28;20198;-76
2021/09/08 10:03:24;;;;;;;9.30;7.50;;;;;;;;;;5053637;28;20654;-77
2021/09/08 10:05:51;;;;;;;8.77;7.60;;;;;;;;;;5054740;28;20279;-77
2021/09/08 10:08:21;;;;;;;13.80;8.27;;;;;;;;;;5054352;28;20295;-78
2021/09/08 10:10:51;;;;;;;8.82;7.88;;;;;;;;;;5053822;28;20825;-77
2021/09/08 10:13:22;;;;;;;9.35;8.20;;;;;;;;;;5054568;28;20234;-77
2021/09/08 10:15:51;;;;;;;8.82;7.53;;;;;;;;;;5053925;28;20750;-77
2021/09/08 10:18:21;;;;;;;8.35;7.55;;;;;;;;;;5053973;28;20206;-77
2021/09/08 10:20:53;;;;;;;10.38;7.63;;;;;;;;;;5054081;28;20878;-77
2021/09/08 10:23:20;;;;;;;7.45;6.15;;;;;;;;;;5048008;28;20235;-77
2021/09/08 10:25:50;;;;;;;7.28;6.40;;;;;;;;;;5046106;28;20286;-76
2021/09/08 10:28:18;;;;;;;6.55;5.25;;;;;;;;;;5054737;28;20220;-78
2021/09/08 10:30:46;;;;;;;6.63;5.93;;;;;;;;;;5054038;28;20262;-78
2021/09/08 10:33:14;;;;;;;6.88;6.15;;;;;;;;;;5054037;28;20283;-77
2021/09/08 10:35:42;;;;;;;6.75;6.15;;;;;;;;;;5054123;28;20192;-77
2021/09/08 10:38:14;;;;;;;6.57;5.35;;;;;;;;;;5053330;28;20210;-77
2021/09/08 10:40:42;;;;;;;6.10;5.30;;;;;;;;;;5054377;28;20215;-77
2021/09/08 10:43:09;;;;;;;6.88;5.47;;;;;;;;;;5054848;28;20630;-77
2021/09/08 10:45:37;;;;;;;5.55;4.95;;;;;;;;;;5051700;28;20207;-77
2021/09/08 10:48:05;;;;;;;6.75;5.57;;;;;;;;;;5043263;28;20224;-77
2021/09/08 10:50:40;;;;;;;5.82;5.22;;;;;;;;;;5045072;28;20220;-77
2021/09/08 10:53:22;;;;;;;7.95;5.38;;;;;;;;;;5046236;28;20195;-77
2021/09/08 10:55:50;;;;;;;5.57;4.97;;;;;;;;;;5049029;28;20200;-77
2021/09/08 10:58:18;;;;;;;5.95;4.47;;;;;;;;;;5041731;28;20288;-78
2021/09/08 11:00:45;;;;;;;4.47;4.07;;;;;;;;;;5045299;28;20805;-77
2021/09/08 11:03:27;;;;;;;6.03;4.15;;;;;;;;;;5046239;28;20264;-78
2021/09/08 11:05:56;;;;;;;5.32;4.82;;;;;;;;;;5041912;28;20205;-77
2021/09/08 11:08:24;;;;;;;5.70;5.10;;;;;;;;;;5053320;28;20301;-77
2021/09/08 11:10:51;;;;;;;5.07;4.45;;;;;;;;;;5036740;28;20711;-77
2021/09/08 11:13:26;;;;;;;6.32;4.40;;;;;;;;;;5037833;28;20282;-77
2021/09/08 11:15:53;;;;;;;6.25;5.22;;;;;;;;;;5052519;28;20662;-78
2021/09/08 11:18:21;;;;;;;7.15;5.28;;;;;;;;;;5051434;28;20291;-78
2021/09/08 11:21:01;;;;;;;7.80;5.78;;;;;;;;;;5044172;28;20655;-78
2021/09/08 11:23:28;;;;;;;7.97;6.30;;;;;;;;;;5045837;28;20210;-76
2021/09/08 11:25:55;;;;;;;8.60;6.90;;;;;;;;;;5053124;28;20286;-78
2021/09/08 11:28:23;;;;;;;6.47;5.88;;;;;;;;;;5045382;28;20294;-77
2021/09/08 11:30:50;;;;;;;6.95;6.25;;;;;;;;;;5052575;28;20306;-76
2021/09/08 11:33:17;;;;;;;6.05;5.45;;;;;;;;;;5052232;28;20385;-77
2021/09/08 11:35:45;;;;;;;6.65;5.65;;;;;;;;;;5038291;28;20200;-79
2021/09/08 11:38:15;;;;;;;6.97;5.75;;;;;;;;;;5046839;28;20222;-78
2021/09/08 11:40:44;;;;;;;6.75;5.85;;;;;;;;;;5052195;28;20265;-78
2021/09/08 11:43:11;;;;;;;6.18;5.57;;;;;;;;;;5041221;28;20287;-77
2021/09/08 11:45:38;;;;;;;7.70;6.03;;;;;;;;;;5042906;28;20577;-76
2021/09/08 11:48:06;;;;;;;8.20;6.43;;;;;;;;;;5042426;28;20236;-75
2021/09/08 11:50:33;;;;;;;7.45;5.90;;;;;;;;;;5043598;28;20206;-77
2021/09/08 11:53:01;;;;;;;7.30;6.00;;;;;;;;;;5039861;28;20206;-76
2021/09/08 11:55:33;;;;;;;6.65;5.95;;;;;;;;;;5046086;28;20628;-75
2021/09/08 11:58:19;;;;;;;7.45;5.45;;;;;;;;;;5042553;28;20234;-76
2021/09/08 12:00:59;;;;;;;6.68;6.00;;;;;;;;;;5051948;28;20294;-75
2021/09/08 12:03:27;;;;;;;7.43;6.70;;;;;;;;;;5051518;28;20326;-76
2021/09/08 12:05:55;;;;;;;8.15;6.40;;;;;;;;;;5050884;28;20206;-76
2021/09/08 12:08:23;;;;;;;8.23;6.85;;;;;;;;;;5042752;28;20283;-75
2021/09/08 12:10:52;;;;;;;11.60;7.25;;;;;;;;;;5051758;28;20334;-76
2021/09/08 12:13:29;;;;;;;8.45;7.65;;;;;;;;;;5051803;28;20295;-76
2021/09/08 12:15:57;;;;;;;8.38;7.47;;;;;;;;;;5051420;28;20207;-75
2021/09/08 12:18:24;;;;;;;8.52;7.25;;;;;;;;;;5052189;28;20234;-75
2021/09/08 12:20:51;;;;;;;8.98;7.50;;;;;;;;;;5049578;28;20294;-75
2021/09/08 12:23:26;;;;;;;7.95;7.25;;;;;;;;;;5040502;28;20243;-75
2021/09/08 12:26:05;;;;;;;8.52;7.65;;;;;;;;;;5042878;28;20214;-75
2021/09/08 12:28:32;;;;;;;8.73;7.05;;;;;;;;;;5047066;28;20234;-75
2021/09/08 12:31:16;;;;;;;9.10;6.57;;;;;;;;;;5035331;28;20232;-76
2021/09/08 12:33:54;;;;;;;7.45;6.45;;;;;;;;;;5040755;28;20691;-75
2021/09/08 12:39:27;;;;;;;6.78;5.88;;;;;;;;;;5037995;28;20690;-75
2021/09/08 12:42:00;;;;;;;8.25;6.05;;;;;;;;;;5041024;28;20287;-75
2021/09/08 12:44:32;;;;;;;7.68;5.80;;;;;;;;;;5043261;28;20288;-76
2021/09/08 12:47:08;;;;;;;7.50;5.78;;;;;;;;;;5046948;28;20200;-75
2021/09/08 12:49:35;;;;;;;7.32;5.93;;;;;;;;;;5046568;28;20207;-75
2021/09/08 12:52:05;;;;;;;5.85;5.05;;;;;;;;;;5047966;28;20306;-75
2021/09/08 12:54:33;;;;;;;7.68;5.15;;;;;;;;;;5047696;28;20195;-75
2021/09/08 12:57:01;;;;;;;5.22;4.47;;;;;;;;;;5046749;28;20224;-75
2021/09/08 12:59:30;;;;;;;4.97;4.53;;;;;;;;;;5045486;28;20299;-75
2021/09/08 13:01:58;;;;;;;4.85;4.18;;;;;;;;;;5045544;28;20216;-75
2021/09/08 13:04:25;;;;;;;6.00;4.40;;;;;;;;;;5041450;28;20314;-76
2021/09/08 13:06:53;;;;;;;5.10;4.47;;;;;;;;;;5049490;28;20752;-76
2021/09/08 13:09:20;;;;;;;6.78;4.55;;;;;;;;;;5049140;28;20274;-76
2021/09/08 13:11:48;;;;;;;4.88;4.35;;;;;;;;;;5049813;28;20302;-76
2021/09/08 13:14:17;;;;;;;4.40;4.00;;;;;;;;;;5040941;28;20192;-76
2021/09/08 13:16:44;;;;;;;5.18;3.90;;;;;;;;;;5038468;28;21690;-76
2021/09/08 13:19:12;;;;;;;4.65;3.88;;;;;;;;;;5042272;28;20203;-76
2021/09/08 13:21:40;;;;;;;4.93;3.88;;;;;;;;;;5046830;28;20286;-76
2021/09/08 13:24:09;;;;;;;4.47;4.05;;;;;;;;;;5048465;28;20207;-76
2021/09/08 13:26:36;;;;;;;4.55;4.13;;;;;;;;;;5041926;28;20209;-76
2021/09/08 13:29:04;;;;;;;3.92;3.25;;;;;;;;;;5040742;28;20200;-76
2021/09/08 13:31:33;;;;;;;4.55;3.60;;;;;;;;;;5047311;28;20831;-76
2021/09/08 13:34:02;;;;;;;3.90;3.47;;;;;;;;;;5043030;28;20294;-77
2021/09/08 13:36:29;;;;;;;3.95;3.65;;;;;;;;;;5043962;28;20203;-75
2021/09/08 13:39:00;;;;;;;5.03;3.38;;;;;;;;;;5046889;28;20250;-77
2021/09/08 13:41:27;;;;;;;4.90;3.70;;;;;;;;;;5047321;28;20265;-77
2021/09/08 13:43:54;;;;;;;4.65;3.63;;;;;;;;;;5050269;28;20669;-74
2021/09/08 13:46:22;;;;;;;3.58;3.25;;;;;;;;;;5036326;28;20720;-76
2021/09/08 13:48:51;;;;;;;5.28;4.10;;;;;;;;;;5039111;28;20678;-76
2021/09/08 13:51:18;;;;;;;5.43;4.03;;;;;;;;;;5045185;28;20231;-76
2021/09/08 13:53:46;;;;;;;3.58;3.17;;;;;;;;;;5035152;28;20285;-76
2021/09/08 13:56:14;;;;;;;4.85;3.65;;;;;;;;;;5047977;28;20235;-76
2021/09/08 13:58:45;;;;;;;4.15;3.42;;;;;;;;;;5048843;28;20728;-77
2021/09/08 14:01:12;;;;;;;3.85;3.25;;;;;;;;;;5041295;28;20290;-76
2021/09/08 14:03:40;;;;;;;5.65;3.50;;;;;;;;;;5034948;28;20327;-75
2021/09/08 14:06:08;;;;;;;4.05;3.35;;;;;;;;;;5048359;28;20290;-76
2021/09/08 14:08:35;;;;;;;3.40;3.10;;;;;;;;;;5050272;28;20232;-75
2021/09/08 14:11:03;;;;;;;3.53;3.00;;;;;;;;;;5036218;28;20212;-76
2021/09/08 14:13:30;;;;;;;3.65;3.30;;;;;;;;;;5046954;28;20793;-76
2021/09/08 14:15:57;;;;;;;3.50;3.20;;;;;;;;;;5039167;28;20236;-75
2021/09/08 14:18:25;;;;;;;4.38;3.20;;;;;;;;;;5034780;28;20231;-77
2021/09/08 14:20:53;;;;;;;4.60;3.33;;;;;;;;;;5049353;28;20291;-76
2021/09/08 14:23:22;;;;;;;3.85;3.47;;;;;;;;;;5036808;28;20239;-76
2021/09/08 14:25:50;;;;;;;4.03;3.67;;;;;;;;;;5048356;28;20227;-76
2021/09/08 14:28:17;;;;;;;4.38;3.15;;;;;;;;;;5050690;28;20225;-76
2021/09/08 14:30:44;;;;;;;4.20;3.47;;;;;;;;;;5050601;28;20219;-77
2021/09/08 14:33:12;;;;;;;3.72;3.33;;;;;;;;;;5047947;28;20251;-78
2021/09/08 14:35:39;;;;;;;4.78;3.35;;;;;;;;;;5050228;28;20318;-76
2021/09/08 14:38:06;;;;;;;4.03;3.53;;;;;;;;;;5047117;28;20242;-76
2021/09/08 14:40:35;;;;;;;4.50;3.03;;;;;;;;;;5050117;28;20286;-77
2021/09/08 14:43:02;;;;;;;2.95;2.75;;;;;;;;;;5050232;28;20316;-76
2021/09/08 14:45:30;;;;;;;6.57;3.20;;;;;;;;;;5048204;28;20293;-76
2021/09/08 14:47:58;;;;;;;3.33;2.85;;;;;;;;;;5046684;28;20238;-76
2021/09/08 14:50:25;;;;;;;3.00;2.70;;;;;;;;;;5053457;28;20320;-76